Time;durP1;ratioP1;P1;durP2;ratioP2;P2;SDS_P1;SDS_P2;PMS_P1;PMS_P2;Temp;Humidity;BMP_temperature;BMP_pressure;BME280_temperature;BME280_humidity;BME280_pressure;Samples;Min_cycle;Max_cycle;Signal;HPM_P1;HPM_P2
2021/09/16 00:01:22;;;;;;;0.60;0.60;;;16.30;99.90;;;;;;5027073;28;20241;-83
2021/09/16 00:03:47;;;;;;;1.03;0.50;;;16.30;99.90;;;;;;5044724;28;20195;-80
2021/09/16 00:06:13;;;;;;;1.10;0.47;;;16.30;99.90;;;;;;5042510;28;20249;-82
2021/09/16 00:08:39;;;;;;;5.60;1.00;;;16.30;99.90;;;;;;5042979;28;20697;-82
2021/09/16 00:11:05;;;;;;;4.70;0.70;;;16.30;99.90;;;;;;5043101;28;20230;-82
2021/09/16 00:13:31;;;;;;;1.23;1.07;;;16.30;99.90;;;;;;5026447;28;20222;-84
2021/09/16 00:15:56;;;;;;;1.00;0.90;;;16.30;99.90;;;;;;5027249;28;20204;-83
2021/09/16 00:18:23;;;;;;;2.83;0.83;;;16.30;99.90;;;;;;5061279;28;20513;-85
2021/09/16 00:20:49;;;;;;;2.47;1.20;;;16.30;99.90;;;;;;5043686;28;20241;-83
2021/09/16 00:23:16;;;;;;;2.80;1.00;;;16.40;99.90;;;;;;5026961;28;20271;-80
2021/09/16 00:25:42;;;;;;;1.30;0.90;;;16.40;99.90;;;;;;5039032;28;20238;-82
2021/09/16 00:28:08;;;;;;;6.03;0.93;;;16.40;99.90;;;;;;5026362;28;20235;-83
2021/09/16 00:30:33;;;;;;;3.27;0.80;;;16.40;99.90;;;;;;5026915;28;20194;-82
2021/09/16 00:32:59;;;;;;;2.43;1.03;;;16.40;99.90;;;;;;5041020;28;21043;-83
2021/09/16 00:35:25;;;;;;;3.37;0.90;;;16.50;99.90;;;;;;5035858;28;20701;-83
2021/09/16 00:37:51;;;;;;;1.30;1.00;;;16.50;99.90;;;;;;5041261;28;20221;-83
2021/09/16 00:40:17;;;;;;;7.47;2.53;;;16.50;99.90;;;;;;5026893;28;20225;-84
2021/09/16 00:42:44;;;;;;;4.13;1.40;;;16.50;99.90;;;;;;5037827;28;20696;-82
2021/09/16 00:45:11;;;;;;;4.33;1.57;;;16.50;99.90;;;;;;5036359;28;20234;-82
2021/09/16 00:47:41;;;;;;;4.37;2.03;;;16.60;99.90;;;;;;5043913;28;20284;-82
2021/09/16 00:50:08;;;;;;;3.10;1.60;;;16.60;99.90;;;;;;5036498;28;20214;-85
2021/09/16 00:52:35;;;;;;;4.80;2.13;;;16.60;99.90;;;;;;5012203;28;20673;-79
2021/09/16 00:55:01;;;;;;;2.53;1.97;;;16.60;99.90;;;;;;5043397;28;20213;-85
2021/09/16 00:57:29;;;;;;;4.67;2.40;;;16.60;99.90;;;;;;5027563;28;20719;-84
2021/09/16 00:59:55;;;;;;;3.53;1.57;;;16.60;99.90;;;;;;5023227;28;20252;-83
2021/09/16 01:02:21;;;;;;;3.10;2.10;;;16.60;99.90;;;;;;5030170;28;20249;-83
2021/09/16 01:04:47;;;;;;;2.40;1.70;;;16.60;99.90;;;;;;5046840;28;20786;-83
2021/09/16 01:07:14;;;;;;;3.87;2.17;;;16.60;99.90;;;;;;5045880;28;20182;-83
2021/09/16 01:09:42;;;;;;;5.47;2.67;;;16.60;99.90;;;;;;5046362;28;20752;-82
2021/09/16 01:12:07;;;;;;;7.10;3.87;;;16.60;99.90;;;;;;5060766;28;20213;-83
2021/09/16 01:14:33;;;;;;;2.23;1.30;;;16.60;99.90;;;;;;5046480;28;20238;-83
2021/09/16 01:17:00;;;;;;;1.70;1.07;;;16.60;99.90;;;;;;5046391;28;20232;-82
2021/09/16 01:19:27;;;;;;;1.17;0.80;;;16.60;99.90;;;;;;5062905;28;20732;-83
2021/09/16 01:21:53;;;;;;;0.60;0.60;;;16.60;99.90;;;;;;5046633;28;20184;-82
2021/09/16 01:24:19;;;;;;;0.60;0.60;;;16.60;99.90;;;;;;5045511;28;20221;-84
2021/09/16 01:26:45;;;;;;;2.83;1.03;;;16.50;99.90;;;;;;5045469;28;20213;-83
2021/09/16 01:29:12;;;;;;;0.43;0.43;;;16.50;99.90;;;;;;5061126;28;20216;-83
2021/09/16 01:31:44;;;;;;;2.90;0.80;;;16.40;99.90;;;;;;5060630;28;20217;-82
2021/09/16 01:34:12;;;;;;;5.30;1.20;;;16.40;99.90;;;;;;5060000;28;20224;-84
2021/09/16 01:36:40;;;;;;;1.73;0.57;;;16.10;99.90;;;;;;5046394;28;20677;-84
2021/09/16 01:39:09;;;;;;;0.83;0.83;;;16.00;99.90;;;;;;5063307;28;20225;-82
2021/09/16 01:41:35;;;;;;;0.73;0.70;;;16.00;99.90;;;;;;5061935;28;20213;-83
2021/09/16 01:44:02;;;;;;;1.50;1.07;;;15.90;99.90;;;;;;5061789;28;20850;-82
2021/09/16 01:46:28;;;;;;;7.50;1.40;;;15.90;99.90;;;;;;5061463;28;20229;-81
2021/09/16 01:48:56;;;;;;;1.80;1.20;;;15.90;99.90;;;;;;5054446;28;20216;-81
2021/09/16 01:51:22;;;;;;;6.87;1.90;;;16.00;99.90;;;;;;5054810;28;20964;-80
2021/09/16 01:53:48;;;;;;;1.53;1.33;;;16.00;99.90;;;;;;5044942;28;20280;-82
2021/09/16 01:56:13;;;;;;;3.53;1.83;;;16.10;99.90;;;;;;5044477;28;20224;-80
2021/09/16 01:58:39;;;;;;;2.30;1.07;;;16.10;99.90;;;;;;5045690;28;20288;-81
2021/09/16 02:01:05;;;;;;;8.23;2.03;;;16.10;99.90;;;;;;5037708;28;20900;-81
2021/09/16 02:03:31;;;;;;;4.77;1.53;;;16.10;99.90;;;;;;5062860;28;20193;-85
2021/09/16 02:05:58;;;;;;;3.50;1.73;;;16.10;99.90;;;;;;5055065;28;20323;-84
2021/09/16 02:08:24;;;;;;;3.50;1.57;;;16.20;99.90;;;;;;5053399;28;20225;-82
2021/09/16 02:10:50;;;;;;;1.03;0.60;;;16.20;99.90;;;;;;5054057;28;20217;-81
2021/09/16 02:13:16;;;;;;;1.63;1.03;;;16.20;99.90;;;;;;5035806;28;20387;-82
2021/09/16 02:15:41;;;;;;;4.10;2.10;;;16.30;99.90;;;;;;5026047;28;20293;-82
2021/09/16 02:18:07;;;;;;;1.53;1.43;;;16.30;99.90;;;;;;5025627;28;20245;-83
2021/09/16 02:21:08;;;;;;;9.27;2.13;;;16.30;99.90;;;;;;5040500;28;20221;-83
2021/09/16 02:23:34;;;;;;;3.43;1.70;;;16.30;99.90;;;;;;5038997;28;20208;-83
2021/09/16 02:26:00;;;;;;;4.80;2.03;;;16.30;99.90;;;;;;5062808;28;20237;-83
2021/09/16 02:28:26;;;;;;;4.40;2.37;;;16.30;99.90;;;;;;5062871;28;20243;-84
2021/09/16 02:30:52;;;;;;;4.63;1.80;;;16.20;99.90;;;;;;5045366;28;20199;-83
2021/09/16 02:33:17;;;;;;;2.83;2.23;;;16.20;99.90;;;;;;5059116;28;20221;-83
2021/09/16 02:35:43;;;;;;;4.57;2.00;;;16.20;99.90;;;;;;5045433;28;20225;-81
2021/09/16 02:38:09;;;;;;;2.73;2.00;;;16.20;99.90;;;;;;5045048;28;20228;-82
2021/09/16 02:40:34;;;;;;;2.20;1.77;;;16.20;99.90;;;;;;5061883;28;21087;-83
2021/09/16 02:43:00;;;;;;;5.80;1.30;;;16.30;99.90;;;;;;5055852;28;20190;-83
2021/09/16 02:45:26;;;;;;;3.10;1.87;;;16.40;99.90;;;;;;5059382;28;20233;-83
2021/09/16 02:47:52;;;;;;;4.07;1.83;;;16.40;99.90;;;;;;5044988;28;20225;-82
2021/09/16 02:50:17;;;;;;;4.77;2.20;;;16.40;99.90;;;;;;5044667;28;20217;-83
2021/09/16 02:52:43;;;;;;;6.03;2.03;;;16.40;99.90;;;;;;5045126;28;20217;-83
2021/09/16 02:55:09;;;;;;;4.87;2.00;;;16.30;99.90;;;;;;5044645;28;20698;-83
2021/09/16 02:57:35;;;;;;;2.37;1.57;;;16.40;99.90;;;;;;5045805;28;20189;-82
2021/09/16 03:00:00;;;;;;;4.77;2.43;;;16.40;99.90;;;;;;5064415;28;20225;-83
2021/09/16 03:02:26;;;;;;;9.47;2.37;;;16.40;99.90;;;;;;5047315;28;20519;-82
2021/09/16 03:04:52;;;;;;;4.43;1.90;;;16.30;99.90;;;;;;5031747;28;20697;-80
2021/09/16 03:07:17;;;;;;;5.10;2.67;;;16.40;99.90;;;;;;5047620;28;20221;-83
2021/09/16 03:09:43;;;;;;;2.13;1.43;;;16.40;99.90;;;;;;5065337;28;20208;-84
2021/09/16 03:12:09;;;;;;;2.83;2.03;;;16.40;99.90;;;;;;5063517;28;20616;-82
2021/09/16 03:14:35;;;;;;;7.40;1.93;;;16.40;99.90;;;;;;5048000;28;20217;-82
2021/09/16 03:17:00;;;;;;;5.57;1.90;;;16.30;99.90;;;;;;5031365;28;20223;-81
2021/09/16 03:19:26;;;;;;;2.33;1.60;;;16.40;99.90;;;;;;5047898;28;20267;-81
2021/09/16 03:21:52;;;;;;;4.33;1.90;;;16.40;99.90;;;;;;5049065;28;21154;-83
2021/09/16 03:24:17;;;;;;;4.23;1.77;;;16.40;99.90;;;;;;5055328;28;20213;-83
2021/09/16 03:26:43;;;;;;;4.40;1.47;;;16.40;99.90;;;;;;5065511;28;20241;-83
2021/09/16 03:29:09;;;;;;;2.67;1.33;;;16.50;99.90;;;;;;5063611;28;20220;-81
2021/09/16 03:31:35;;;;;;;3.20;1.70;;;16.50;99.90;;;;;;5031485;28;20229;-82
2021/09/16 03:34:00;;;;;;;6.37;1.13;;;16.50;99.90;;;;;;5030619;28;20319;-82
2021/09/16 03:36:26;;;;;;;4.33;1.13;;;16.50;99.90;;;;;;5065700;28;20204;-81
2021/09/16 03:38:52;;;;;;;3.20;2.50;;;16.50;99.90;;;;;;5040288;28;20228;-82
2021/09/16 03:41:18;;;;;;;3.70;1.23;;;16.50;99.90;;;;;;5035209;28;20632;-81
2021/09/16 03:43:44;;;;;;;5.67;1.77;;;16.40;99.90;;;;;;5045704;28;20222;-82
2021/09/16 03:46:09;;;;;;;1.37;0.80;;;16.40;99.90;;;;;;5027931;28;21918;-82
2021/09/16 03:48:35;;;;;;;3.97;1.53;;;16.40;99.90;;;;;;5029068;28;20212;-82
2021/09/16 03:51:01;;;;;;;2.33;0.93;;;16.40;99.90;;;;;;5041791;28;20245;-83
2021/09/16 03:53:27;;;;;;;8.93;2.00;;;16.40;99.90;;;;;;5027490;28;20332;-84
2021/09/16 03:55:52;;;;;;;6.97;1.50;;;16.40;99.90;;;;;;5027086;28;20304;-83
2021/09/16 03:58:18;;;;;;;5.00;1.20;;;16.40;99.90;;;;;;5010684;28;20229;-83
2021/09/16 04:00:44;;;;;;;8.43;1.77;;;16.40;99.90;;;;;;5028042;28;20323;-82
2021/09/16 04:03:10;;;;;;;4.90;1.70;;;16.50;99.90;;;;;;5042173;28;20707;-82
2021/09/16 04:05:38;;;;;;;3.83;1.50;;;16.50;99.90;;;;;;5043015;28;21184;-82
2021/09/16 04:08:05;;;;;;;2.70;1.83;;;16.50;99.90;;;;;;5043178;28;20287;-83
2021/09/16 04:10:31;;;;;;;6.20;1.47;;;16.50;99.90;;;;;;5044640;28;20360;-81
2021/09/16 04:12:57;;;;;;;1.80;1.33;;;16.50;99.90;;;;;;5010786;28;20203;-82
2021/09/16 04:15:23;;;;;;;5.80;1.67;;;16.40;99.90;;;;;;5028805;28;20198;-82
2021/09/16 04:17:48;;;;;;;3.20;1.20;;;16.40;99.90;;;;;;5026165;28;20210;-83
2021/09/16 04:20:14;;;;;;;3.97;1.20;;;16.40;99.90;;;;;;5034735;28;20245;-82
2021/09/16 04:22:40;;;;;;;4.10;2.20;;;16.30;99.90;;;;;;5027616;28;20213;-82
2021/09/16 04:25:06;;;;;;;1.77;1.67;;;16.30;99.90;;;;;;5019930;28;20233;-82
2021/09/16 04:27:32;;;;;;;1.30;0.83;;;16.30;99.90;;;;;;5027651;28;20228;-83
2021/09/16 04:29:58;;;;;;;1.03;0.87;;;16.20;99.90;;;;;;5042588;28;20210;-82
2021/09/16 04:32:24;;;;;;;2.37;1.13;;;16.30;99.90;;;;;;5042460;28;20637;-83
2021/09/16 04:34:50;;;;;;;3.23;2.00;;;16.30;99.90;;;;;;5043260;28;21506;-83
2021/09/16 04:37:17;;;;;;;5.90;1.23;;;16.30;99.90;;;;;;5042392;28;20240;-81
2021/09/16 04:39:42;;;;;;;1.33;1.20;;;16.20;99.90;;;;;;5027709;28;20285;-81
2021/09/16 04:42:09;;;;;;;7.17;1.53;;;16.20;99.90;;;;;;5043590;28;20296;-81
2021/09/16 04:44:34;;;;;;;1.30;0.70;;;16.20;99.90;;;;;;5042356;28;20242;-82
2021/09/16 04:47:00;;;;;;;5.40;1.67;;;16.30;99.90;;;;;;5015721;28;20228;-83
2021/09/16 04:49:27;;;;;;;4.27;1.27;;;16.30;99.90;;;;;;5013645;28;20686;-82
2021/09/16 04:51:54;;;;;;;1.90;1.60;;;16.30;99.90;;;;;;5064508;28;20196;-81
2021/09/16 04:54:19;;;;;;;9.80;1.67;;;16.30;99.90;;;;;;5062299;28;20221;-82
2021/09/16 04:56:45;;;;;;;2.20;1.90;;;16.40;99.90;;;;;;5047385;28;20259;-83
2021/09/16 04:59:11;;;;;;;2.50;1.43;;;16.30;99.90;;;;;;5046509;28;20395;-83
2021/09/16 05:01:37;;;;;;;0.83;0.70;;;16.30;99.90;;;;;;5047018;28;20217;-83
2021/09/16 05:04:03;;;;;;;1.63;1.43;;;16.30;99.90;;;;;;5059116;28;20190;-82
2021/09/16 05:06:29;;;;;;;2.10;1.20;;;16.30;99.90;;;;;;5063621;28;20432;-83
2021/09/16 05:08:55;;;;;;;6.03;2.73;;;16.30;99.90;;;;;;5046238;28;20666;-82
2021/09/16 05:11:21;;;;;;;1.90;1.50;;;16.30;99.90;;;;;;5063405;28;20300;-82
2021/09/16 05:13:46;;;;;;;3.07;1.27;;;16.40;99.90;;;;;;5042475;28;20217;-85
2021/09/16 05:16:12;;;;;;;2.23;1.17;;;16.40;99.90;;;;;;5046225;28;20197;-84
2021/09/16 05:18:38;;;;;;;5.23;2.53;;;16.40;99.90;;;;;;5062367;28;20232;-85
2021/09/16 05:21:04;;;;;;;7.03;2.30;;;16.40;99.90;;;;;;5047278;28;20245;-85
2021/09/16 05:23:30;;;;;;;3.80;1.80;;;16.40;99.90;;;;;;5045611;28;20215;-84
2021/09/16 05:25:56;;;;;;;2.00;1.07;;;16.40;99.90;;;;;;5056874;28;20249;-84
2021/09/16 05:28:22;;;;;;;5.67;1.87;;;16.40;99.90;;;;;;5047152;28;20649;-84
2021/09/16 05:30:48;;;;;;;1.50;1.40;;;16.40;99.90;;;;;;5080951;28;20186;-86
2021/09/16 05:33:14;;;;;;;4.00;2.13;;;16.50;99.90;;;;;;5065034;28;20239;-85
2021/09/16 05:35:40;;;;;;;1.23;1.00;;;16.50;99.90;;;;;;5064048;28;20270;-86
2021/09/16 05:38:07;;;;;;;7.30;1.70;;;16.50;99.90;;;;;;5030849;28;20224;-85
2021/09/16 05:40:33;;;;;;;5.10;1.50;;;16.50;99.90;;;;;;5062950;28;20217;-84
2021/09/16 05:43:00;;;;;;;4.77;1.37;;;16.50;99.90;;;;;;5057981;28;20676;-83
2021/09/16 05:45:26;;;;;;;3.37;1.43;;;16.50;99.90;;;;;;5062367;28;20260;-84
2021/09/16 05:47:52;;;;;;;6.13;1.13;;;16.50;99.90;;;;;;5028450;28;20224;-83
2021/09/16 05:50:18;;;;;;;4.73;2.47;;;16.50;99.90;;;;;;5061102;28;20221;-84
2021/09/16 05:52:44;;;;;;;2.73;1.33;;;16.60;99.90;;;;;;5046651;28;20225;-82
2021/09/16 05:55:10;;;;;;;4.67;1.77;;;16.60;99.90;;;;;;5046442;28;20204;-81
2021/09/16 05:57:37;;;;;;;0.80;0.70;;;16.60;99.90;;;;;;5047673;28;20197;-83
2021/09/16 06:00:07;;;;;;;2.00;1.00;;;16.60;99.90;;;;;;5055343;28;20273;-86
2021/09/16 06:02:34;;;;;;;6.10;1.57;;;16.60;99.90;;;;;;5048393;28;20617;-87
2021/09/16 06:05:00;;;;;;;9.67;1.93;;;16.60;99.90;;;;;;5062395;28;20237;-84
2021/09/16 06:07:26;;;;;;;2.47;1.80;;;16.60;99.90;;;;;;5060571;28;20225;-84
2021/09/16 06:09:52;;;;;;;4.70;1.40;;;16.60;99.90;;;;;;5062682;28;20189;-84
2021/09/16 06:12:18;;;;;;;7.87;2.27;;;16.60;99.90;;;;;;5056256;28;20217;-84
2021/09/16 06:14:44;;;;;;;5.47;1.37;;;16.70;99.90;;;;;;5062382;28;20217;-83
2021/09/16 06:17:10;;;;;;;5.37;1.10;;;16.70;99.90;;;;;;5029137;28;20784;-85
2021/09/16 06:19:36;;;;;;;3.57;1.53;;;16.70;99.90;;;;;;5041580;28;20407;-83
2021/09/16 06:22:04;;;;;;;3.83;2.27;;;16.80;99.90;;;;;;5042097;28;20587;-83
2021/09/16 06:24:30;;;;;;;3.47;1.47;;;16.70;99.90;;;;;;5058428;28;20197;-85
2021/09/16 06:26:56;;;;;;;1.37;0.97;;;16.70;99.90;;;;;;5059006;28;20221;-84
2021/09/16 06:29:22;;;;;;;1.13;1.00;;;16.70;99.90;;;;;;5041545;28;20229;-83
2021/09/16 06:31:48;;;;;;;3.67;1.03;;;16.70;99.90;;;;;;5052109;28;20748;-83
2021/09/16 06:34:14;;;;;;;4.33;2.47;;;16.70;99.90;;;;;;5026195;28;20200;-84
2021/09/16 06:36:40;;;;;;;3.63;2.07;;;16.70;99.90;;;;;;5060628;28;20701;-83
2021/09/16 06:39:05;;;;;;;6.50;1.73;;;16.60;99.90;;;;;;5027697;28;20737;-82
2021/09/16 06:41:31;;;;;;;2.00;1.00;;;16.60;99.90;;;;;;5044892;28;20602;-83
2021/09/16 06:43:57;;;;;;;1.53;1.20;;;16.70;99.90;;;;;;5030286;28;20202;-83
2021/09/16 06:46:23;;;;;;;5.30;1.23;;;16.70;99.90;;;;;;5060206;28;20250;-84
2021/09/16 06:48:49;;;;;;;2.97;1.73;;;16.70;99.90;;;;;;5047725;28;20215;-82
2021/09/16 06:51:15;;;;;;;1.27;1.17;;;16.80;99.90;;;;;;5039387;28;20984;-83
2021/09/16 06:53:41;;;;;;;3.00;1.90;;;16.80;99.90;;;;;;5032201;28;20218;-84
2021/09/16 06:56:07;;;;;;;3.03;1.37;;;16.80;99.90;;;;;;5034733;28;20214;-86
2021/09/16 06:58:33;;;;;;;3.30;1.90;;;16.90;99.90;;;;;;5038569;28;20222;-85
2021/09/16 07:00:59;;;;;;;6.33;1.53;;;16.80;99.90;;;;;;5019995;28;20193;-84
2021/09/16 07:03:25;;;;;;;1.70;1.60;;;16.80;99.90;;;;;;5037462;28;20682;-86
2021/09/16 07:05:51;;;;;;;8.53;2.20;;;16.80;99.90;;;;;;5038607;28;20272;-83
2021/09/16 07:08:17;;;;;;;2.30;1.30;;;16.80;99.90;;;;;;5030961;28;20751;-85
2021/09/16 07:10:43;;;;;;;1.70;0.90;;;16.80;99.90;;;;;;5026016;28;21240;-86
2021/09/16 07:13:09;;;;;;;4.67;0.87;;;16.70;99.90;;;;;;5017276;28;20262;-83
2021/09/16 07:15:35;;;;;;;3.57;1.27;;;16.70;99.90;;;;;;5025916;28;20275;-85
2021/09/16 07:18:00;;;;;;;2.97;1.07;;;16.70;99.90;;;;;;5022199;28;20284;-85
2021/09/16 07:20:26;;;;;;;3.27;1.20;;;16.70;99.90;;;;;;5041366;28;20693;-85
2021/09/16 07:22:52;;;;;;;0.60;0.60;;;16.70;99.90;;;;;;5026076;28;20238;-85
2021/09/16 07:25:18;;;;;;;3.90;1.03;;;16.70;99.90;;;;;;5025035;28;20746;-84
2021/09/16 07:27:47;;;;;;;2.27;1.23;;;16.80;99.90;;;;;;5009686;28;20197;-86
2021/09/16 07:30:14;;;;;;;9.17;1.53;;;16.80;99.90;;;;;;5040214;28;20220;-85
2021/09/16 07:32:40;;;;;;;5.47;1.57;;;16.80;99.90;;;;;;5043047;28;20210;-83
2021/09/16 07:35:07;;;;;;;0.73;0.73;;;16.70;99.90;;;;;;5041656;28;21043;-87
2021/09/16 07:37:33;;;;;;;5.90;1.20;;;16.70;99.90;;;;;;5040908;28;20233;-84
2021/09/16 07:40:00;;;;;;;4.57;1.00;;;16.70;99.90;;;;;;5042463;28;20193;-85
2021/09/16 07:42:27;;;;;;;1.60;0.80;;;16.80;99.90;;;;;;5026290;28;20190;-85
2021/09/16 07:44:53;;;;;;;3.13;1.00;;;16.80;99.90;;;;;;5043344;28;20230;-87
2021/09/16 07:47:19;;;;;;;1.90;0.90;;;16.90;99.90;;;;;;5045124;28;20309;-86
2021/09/16 07:49:45;;;;;;;1.83;0.90;;;16.80;99.90;;;;;;5029623;28;20282;-86
2021/09/16 07:52:12;;;;;;;11.03;2.30;;;16.80;99.90;;;;;;5029869;28;20186;-85
2021/09/16 07:54:38;;;;;;;3.17;0.87;;;16.90;99.90;;;;;;5029241;28;20217;-84
2021/09/16 07:57:05;;;;;;;3.23;1.03;;;17.00;99.90;;;;;;5026986;28;20383;-86
2021/09/16 07:59:31;;;;;;;6.57;1.77;;;17.00;99.90;;;;;;5044811;28;20215;-84
2021/09/16 08:01:57;;;;;;;3.30;1.03;;;17.00;99.90;;;;;;5029986;28;20209;-85
2021/09/16 08:04:23;;;;;;;1.57;0.80;;;17.10;99.90;;;;;;5030115;28;20237;-85
2021/09/16 08:06:49;;;;;;;4.37;1.03;;;17.10;99.90;;;;;;5014127;28;20308;-85
2021/09/16 08:09:15;;;;;;;14.23;1.10;;;17.20;99.90;;;;;;5045237;28;20735;-84
2021/09/16 08:11:41;;;;;;;1.63;1.17;;;17.20;99.90;;;;;;5040214;28;20214;-83
2021/09/16 08:14:08;;;;;;;0.90;0.40;;;17.40;99.90;;;;;;5045904;28;20236;-83
2021/09/16 08:16:35;;;;;;;1.90;0.90;;;17.40;99.90;;;;;;5045119;28;20222;-83
2021/09/16 08:19:03;;;;;;;1.30;0.87;;;17.70;99.90;;;;;;5043737;28;20628;-84
2021/09/16 08:21:29;;;;;;;1.30;1.20;;;17.70;99.90;;;;;;5030449;28;20192;-84
2021/09/16 08:23:55;;;;;;;0.60;0.53;;;17.70;99.90;;;;;;5028483;28;20720;-85
2021/09/16 08:26:22;;;;;;;5.37;0.90;;;17.70;99.90;;;;;;5044648;28;20221;-82
2021/09/16 08:28:48;;;;;;;2.83;1.37;;;17.70;99.90;;;;;;5037327;28;20226;-83
2021/09/16 08:31:14;;;;;;;8.03;1.73;;;17.70;99.90;;;;;;5029394;28;20399;-83
2021/09/16 08:33:40;;;;;;;2.67;0.97;;;17.70;99.90;;;;;;5047201;28;20660;-83
2021/09/16 08:36:08;;;;;;;3.13;1.10;;;17.60;99.90;;;;;;5028380;28;20222;-84
2021/09/16 08:38:34;;;;;;;0.73;0.73;;;17.60;99.90;;;;;;5062185;28;20221;-84
2021/09/16 08:41:00;;;;;;;1.07;0.63;;;17.50;99.90;;;;;;5028490;28;20214;-82
2021/09/16 08:43:30;;;;;;;1.97;0.87;;;17.40;99.90;;;;;;5027989;28;20586;-83
2021/09/16 08:45:57;;;;;;;2.97;0.80;;;17.40;99.90;;;;;;5038123;28;20233;-83
2021/09/16 08:48:23;;;;;;;5.77;1.37;;;17.40;99.90;;;;;;5045714;28;20201;-86
2021/09/16 08:50:49;;;;;;;4.40;0.80;;;17.40;99.90;;;;;;5027689;28;20595;-84
2021/09/16 08:53:24;;;;;;;2.27;0.87;;;17.50;99.90;;;;;;5044668;28;20229;-83
2021/09/16 08:55:51;;;;;;;5.70;1.13;;;17.50;99.90;;;;;;5044678;28;20220;-85
2021/09/16 08:58:25;;;;;;;0.80;0.70;;;17.60;99.90;;;;;;5044761;28;20225;-84
2021/09/16 09:00:52;;;;;;;5.50;1.13;;;17.60;99.90;;;;;;5046350;28;20288;-85
2021/09/16 09:03:17;;;;;;;1.73;0.60;;;17.60;99.90;;;;;;5027943;28;20233;-81
2021/09/16 09:05:44;;;;;;;2.07;1.30;;;17.60;99.90;;;;;;5022396;28;20225;-83
2021/09/16 09:08:10;;;;;;;1.73;0.90;;;17.50;99.90;;;;;;5043971;28;20209;-85
2021/09/16 09:10:48;;;;;;;2.00;0.87;;;17.50;99.90;;;;;;5045131;28;20221;-84
2021/09/16 09:13:17;;;;;;;1.17;0.90;;;17.60;99.90;;;;;;5043802;28;20193;-85
2021/09/16 09:15:45;;;;;;;3.80;1.17;;;17.60;99.90;;;;;;5043847;28;20198;-82
2021/09/16 09:18:19;;;;;;;2.47;1.23;;;17.80;99.90;;;;;;5042707;28;20248;-82
2021/09/16 09:21:07;;;;;;;7.40;1.30;;;17.90;99.90;;;;;;5042082;28;20237;-84
2021/09/16 09:23:39;;;;;;;3.03;0.77;;;17.90;99.90;;;;;;5043640;28;20210;-84
2021/09/16 09:26:39;;;;;;;1.43;1.13;;;17.90;99.90;;;;;;5042825;28;20222;-83
2021/09/16 09:29:08;;;;;;;1.00;0.70;;;18.10;99.90;;;;;;5020587;28;20308;-83
2021/09/16 09:31:40;;;;;;;4.97;1.27;;;18.10;99.90;;;;;;5044300;28;20218;-83
2021/09/16 09:34:29;;;;;;;1.37;1.00;;;18.30;99.90;;;;;;5043064;28;20605;-83
2021/09/16 09:37:06;;;;;;;0.70;0.70;;;18.30;99.90;;;;;;5044352;28;20301;-85
2021/09/16 09:39:32;;;;;;;1.50;1.03;;;18.30;99.90;;;;;;5045264;28;20368;-85
2021/09/16 09:42:14;;;;;;;0.93;0.67;;;18.80;99.90;;;;;;5059305;28;20225;-83
2021/09/16 09:44:40;;;;;;;2.97;0.90;;;18.60;99.90;;;;;;5079171;28;20216;-83
2021/09/16 09:47:06;;;;;;;3.53;1.47;;;18.60;99.90;;;;;;5030116;28;20233;-84
2021/09/16 09:49:34;;;;;;;2.93;1.30;;;18.30;99.90;;;;;;5047621;28;20846;-83
2021/09/16 09:52:01;;;;;;;6.17;1.57;;;18.10;99.90;;;;;;5062792;28;20200;-84
2021/09/16 09:54:39;;;;;;;6.63;1.20;;;17.90;99.90;;;;;;5058146;28;20193;-88
2021/09/16 09:57:16;;;;;;;5.13;1.30;;;17.90;99.90;;;;;;5064023;28;20227;-86
2021/09/16 10:00:04;;;;;;;2.63;0.97;;;18.10;99.90;;;;;;5063201;28;20880;-86
2021/09/16 10:02:39;;;;;;;1.10;1.00;;;18.70;99.90;;;;;;5062770;28;20217;-87
2021/09/16 10:05:22;;;;;;;1.43;1.00;;;19.00;99.90;;;;;;5062449;28;20233;-86
2021/09/16 10:07:49;;;;;;;1.03;0.77;;;19.50;99.90;;;;;;5062487;28;20216;-87
2021/09/16 10:10:15;;;;;;;2.07;1.37;;;19.20;99.90;;;;;;5047070;28;20242;-88
2021/09/16 10:12:44;;;;;;;1.27;1.17;;;18.90;99.90;;;;;;5063364;28;20203;-85
2021/09/16 10:15:14;;;;;;;0.77;0.77;;;19.20;99.90;;;;;;5063880;28;20294;-86
2021/09/16 10:17:41;;;;;;;2.90;1.00;;;20.20;99.90;;;;;;5063306;28;20220;-86
2021/09/16 10:20:09;;;;;;;3.10;1.43;;;21.10;99.90;;;;;;5046336;28;20213;-88
2021/09/16 10:22:37;;;;;;;1.80;0.87;;;21.70;99.90;;;;;;5062027;28;20209;-85
2021/09/16 10:25:06;;;;;;;0.97;0.90;;;21.70;99.90;;;;;;5061297;28;20227;-84
2021/09/16 10:27:39;;;;;;;7.30;1.97;;;21.60;99.90;;;;;;5058412;28;20185;-84
2021/09/16 10:30:21;;;;;;;2.70;1.37;;;21.40;99.90;;;;;;5062482;28;20217;-86
2021/09/16 10:33:07;;;;;;;1.50;1.00;;;21.10;99.90;;;;;;5059653;28;20208;-85
2021/09/16 10:35:37;;;;;;;2.00;1.17;;;21.40;99.90;;;;;;5061796;28;20849;-83
2021/09/16 10:38:22;;;;;;;1.77;1.00;;;22.00;99.90;;;;;;5056072;28;20229;-85
2021/09/16 10:41:08;;;;;;;3.70;0.90;;;21.70;99.90;;;;;;5063191;28;20216;-84
2021/09/16 10:43:34;;;;;;;1.33;0.90;;;21.90;99.90;;;;;;5062333;28;20848;-84
2021/09/16 10:46:27;;;;;;;3.63;1.00;;;21.80;99.90;;;;;;5045736;28;20225;-87
2021/09/16 10:48:54;;;;;;;2.57;0.83;;;20.80;99.90;;;;;;5063257;28;20239;-85
2021/09/16 10:51:42;;;;;;;3.13;1.10;;;19.90;99.90;;;;;;5046398;28;20319;-84
2021/09/16 10:54:27;;;;;;;3.30;1.07;;;19.60;99.90;;;;;;5054928;28;20247;-87
2021/09/16 10:57:23;;;;;;;1.10;0.87;;;20.20;99.90;;;;;;5062975;28;21181;-84
2021/09/16 10:59:52;;;;;;;2.00;1.67;;;20.40;99.90;;;;;;5062488;28;20213;-83
2021/09/16 11:02:22;;;;;;;1.50;1.27;;;20.00;99.90;;;;;;5061664;28;20221;-85
2021/09/16 11:04:57;;;;;;;0.67;0.63;;;19.50;99.90;;;;;;5062407;28;20221;-84
2021/09/16 11:07:42;;;;;;;0.87;0.77;;;19.20;99.90;;;;;;5061799;28;20920;-85
2021/09/16 11:10:16;;;;;;;1.27;0.97;;;18.90;99.90;;;;;;5062880;28;20276;-83
2021/09/16 11:12:50;;;;;;;2.13;0.70;;;19.70;99.90;;;;;;5063606;28;20323;-85
2021/09/16 11:15:18;;;;;;;3.23;1.27;;;20.40;99.90;;;;;;5056899;28;20686;-85
2021/09/16 11:17:45;;;;;;;1.43;0.80;;;20.20;99.90;;;;;;5062835;28;20260;-85
2021/09/16 11:20:13;;;;;;;1.83;1.20;;;19.60;99.90;;;;;;5062336;28;20217;-83
2021/09/16 11:22:40;;;;;;;1.53;0.87;;;19.50;99.90;;;;;;5066566;28;20268;-85
2021/09/16 11:25:07;;;;;;;3.47;0.93;;;20.20;99.90;;;;;;5062255;28;20217;-85
2021/09/16 11:27:41;;;;;;;2.10;1.00;;;20.80;99.90;;;;;;5066142;28;20192;-83
2021/09/16 11:30:19;;;;;;;3.37;0.90;;;21.10;99.90;;;;;;5083294;28;20296;-86
2021/09/16 11:32:45;;;;;;;4.40;0.90;;;20.30;99.90;;;;;;5065109;28;20615;-84
2021/09/16 11:35:17;;;;;;;4.10;1.00;;;20.00;99.90;;;;;;5048846;28;20304;-85
2021/09/16 11:37:49;;;;;;;3.00;0.90;;;20.20;99.90;;;;;;5064017;28;20221;-83
2021/09/16 11:40:26;;;;;;;0.80;0.80;;;21.10;99.90;;;;;;5065097;28;20189;-85
2021/09/16 11:42:54;;;;;;;1.33;0.77;;;20.70;99.90;;;;;;5065517;28;20189;-84
2021/09/16 11:45:36;;;;;;;3.20;0.70;;;20.50;99.90;;;;;;5065499;28;20269;-83
2021/09/16 11:48:25;;;;;;;0.80;0.80;;;20.60;99.90;;;;;;5048533;28;20214;-84
2021/09/16 11:51:04;;;;;;;9.17;1.67;;;20.30;99.90;;;;;;5041890;28;20216;-86
2021/09/16 11:53:34;;;;;;;0.40;0.40;;;20.50;99.90;;;;;;5052817;28;20263;-83
2021/09/16 11:56:06;;;;;;;2.87;0.90;;;20.80;99.90;;;;;;5044790;28;20213;-83
2021/09/16 11:58:35;;;;;;;1.83;1.10;;;21.00;99.90;;;;;;5052066;28;20225;-85
2021/09/16 12:01:16;;;;;;;3.23;1.03;;;20.60;99.90;;;;;;5058819;28;20319;-84
2021/09/16 12:03:53;;;;;;;1.00;0.70;;;20.40;99.90;;;;;;5082830;28;20539;-87
2021/09/16 12:06:19;;;;;;;3.47;0.90;;;20.40;99.90;;;;;;5043590;28;20275;-86
2021/09/16 12:08:47;;;;;;;1.13;1.03;;;20.20;99.90;;;;;;5041708;28;20278;-85
2021/09/16 12:11:23;;;;;;;3.97;1.00;;;20.00;99.90;;;;;;5042222;28;20218;-84
2021/09/16 12:13:49;;;;;;;1.43;0.80;;;20.20;99.90;;;;;;5042781;28;20241;-85
2021/09/16 12:16:18;;;;;;;1.13;0.63;;;20.20;99.90;;;;;;5044274;28;20221;-85
2021/09/16 12:18:47;;;;;;;1.40;0.63;;;20.20;99.90;;;;;;5046181;28;20268;-86
2021/09/16 12:21:19;;;;;;;1.47;1.00;;;20.50;99.90;;;;;;5044647;28;20302;-81
2021/09/16 12:23:50;;;;;;;1.33;0.80;;;20.20;99.90;;;;;;5044700;28;20235;-83
2021/09/16 12:26:28;;;;;;;4.00;0.93;;;19.80;99.90;;;;;;5030339;28;20713;-86
2021/09/16 12:29:14;;;;;;;3.53;1.10;;;19.30;99.90;;;;;;5056074;28;20206;-85
2021/09/16 12:31:46;;;;;;;5.17;1.13;;;19.40;99.90;;;;;;5043720;28;20664;-85
2021/09/16 12:34:18;;;;;;;2.00;0.77;;;19.40;99.90;;;;;;5044168;28;20273;-83
2021/09/16 12:37:05;;;;;;;1.77;0.90;;;19.30;99.90;;;;;;5045161;28;20193;-84
2021/09/16 12:39:44;;;;;;;1.63;0.97;;;19.10;99.90;;;;;;5045639;28;20247;-83
2021/09/16 12:42:14;;;;;;;1.93;0.70;;;19.50;99.90;;;;;;5044334;28;20739;-84
2021/09/16 12:44:42;;;;;;;2.40;0.93;;;19.80;99.90;;;;;;5043624;28;20232;-86
2021/09/16 12:47:10;;;;;;;2.93;1.43;;;19.80;99.90;;;;;;5043229;28;20238;-82
2021/09/16 12:49:42;;;;;;;0.80;0.80;;;20.00;99.90;;;;;;5027352;28;20250;-82
2021/09/16 12:52:17;;;;;;;1.07;0.80;;;19.90;99.90;;;;;;5038287;28;20338;-80
2021/09/16 12:54:48;;;;;;;1.77;0.70;;;20.00;99.90;;;;;;5044936;28;20197;-85